Time;durP1;ratioP1;P1;durP2;ratioP2;P2;SDS_P1;SDS_P2;PMS_P1;PMS_P2;Temp;Humidity;BMP_temperature;BMP_pressure;BME280_temperature;BME280_humidity;BME280_pressure;Samples;Min_cycle;Max_cycle;Signal;HPM_P1;HPM_P2
2023/07/21 00:01:51;;;;;;;;;;;;;;;19.62;47.47;97592.09;5026914;28;19959;-63
2023/07/21 00:04:39;;;;;;;;;;;;;;;19.61;47.50;97596.81;5027077;28;19952;-64
2023/07/21 00:07:32;;;;;;;;;;;;;;;19.66;47.26;97592.94;5024886;28;20358;-63
2023/07/21 00:10:22;;;;;;;;;;;;;;;19.64;47.41;97587.00;5022646;28;19940;-66
2023/07/21 00:13:10;;;;;;;;;;;;;;;19.65;47.38;97585.81;5027417;28;19936;-63
2023/07/21 00:15:58;;;;;;;;;;;;;;;19.62;47.25;97581.06;5021994;28;19936;-63
2023/07/21 00:18:48;;;;;;;;;;;;;;;19.64;47.49;97575.97;5027189;28;19933;-62
2023/07/21 00:21:36;;;;;;;;;;;;;;;19.58;47.66;97574.69;5029914;28;20380;-64
2023/07/21 00:24:25;;;;;;;;;;;;;;;19.52;47.62;97570.72;5024343;28;19925;-64
2023/07/21 00:27:17;;;;;;;;;;;;;;;19.49;47.89;97563.19;5022454;28;20031;-64
2023/07/21 00:30:08;;;;;;;;;;;;;;;19.51;47.79;97553.38;5014036;28;19925;-64
2023/07/21 00:32:57;;;;;;;;;;;;;;;19.53;47.83;97553.00;5026082;28;19932;-63
2023/07/21 00:35:45;;;;;;;;;;;;;;;19.42;48.07;97552.91;5027006;28;19984;-65
2023/07/21 00:38:33;;;;;;;;;;;;;;;19.46;48.14;97555.69;5021823;28;20302;-64
2023/07/21 00:41:24;;;;;;;;;;;;;;;19.43;48.36;97548.19;5025187;28;19968;-64
2023/07/21 00:44:14;;;;;;;;;;;;;;;19.35;48.48;97539.84;5024015;28;19940;-63
2023/07/21 00:47:02;;;;;;;;;;;;;;;19.34;48.41;97534.72;5020728;28;19929;-64
2023/07/21 00:49:51;;;;;;;;;;;;;;;19.31;48.59;97538.22;5024223;28;19959;-64
2023/07/21 00:52:39;;;;;;;;;;;;;;;19.28;48.80;97533.47;5026098;28;19930;-64
2023/07/21 00:55:27;;;;;;;;;;;;;;;19.26;48.92;97542.09;5026174;28;20330;-63
2023/07/21 00:58:15;;;;;;;;;;;;;;;19.25;48.83;97534.22;5023620;28;19940;-65
2023/07/21 01:01:05;;;;;;;;;;;;;;;19.23;49.00;97533.78;5018809;28;19925;-65
2023/07/21 01:03:53;;;;;;;;;;;;;;;19.20;49.19;97526.31;5022039;28;20505;-65
2023/07/21 01:06:44;;;;;;;;;;;;;;;19.20;49.26;97526.31;5024871;28;19925;-66
2023/07/21 01:09:35;;;;;;;;;;;;;;;19.10;49.67;97525.81;5021705;28;19925;-63
2023/07/21 01:12:26;;;;;;;;;;;;;;;19.14;49.61;97523.09;5025671;28;19939;-66
2023/07/21 01:15:14;;;;;;;;;;;;;;;19.10;49.70;97530.53;5041025;28;19925;-64
2023/07/21 01:18:04;;;;;;;;;;;;;;;19.06;49.81;97513.94;5024151;28;19936;-66
2023/07/21 01:20:52;;;;;;;;;;;;;;;19.09;50.05;97517.94;5018024;28;19929;-64
2023/07/21 01:23:43;;;;;;;;;;;;;;;18.95;50.47;97520.50;5024470;28;20374;-64
2023/07/21 01:26:35;;;;;;;;;;;;;;;18.98;50.33;97514.28;5024715;28;19929;-64
2023/07/21 01:29:24;;;;;;;;;;;;;;;19.00;50.00;97518.22;5022881;28;19933;-65
2023/07/21 01:32:13;;;;;;;;;;;;;;;18.97;50.03;97507.19;5023187;28;19925;-64
2023/07/21 01:35:01;;;;;;;;;;;;;;;18.98;50.09;97508.75;5025873;28;19932;-65
2023/07/21 01:37:50;;;;;;;;;;;;;;;18.95;50.03;97515.00;5019397;28;19929;-65
2023/07/21 01:40:39;;;;;;;;;;;;;;;18.94;49.91;97510.69;5026071;28;19925;-63
2023/07/21 01:43:28;;;;;;;;;;;;;;;18.89;50.20;97516.50;5025939;28;19976;-63
2023/07/21 01:46:17;;;;;;;;;;;;;;;18.96;50.00;97511.06;5022696;28;20040;-64
2023/07/21 01:49:05;;;;;;;;;;;;;;;18.92;50.14;97510.28;5028393;28;19979;-65
2023/07/21 01:51:55;;;;;;;;;;;;;;;18.88;50.22;97515.72;5032571;28;19986;-64
2023/07/21 01:54:45;;;;;;;;;;;;;;;18.80;50.05;97514.84;5019316;28;19925;-65
2023/07/21 01:57:33;;;;;;;;;;;;;;;18.78;50.56;97511.66;5024986;28;19948;-64
2023/07/21 02:00:24;;;;;;;;;;;;;;;18.80;50.55;97503.84;5023869;28;20546;-66
2023/07/21 02:03:13;;;;;;;;;;;;;;;18.77;50.52;97498.28;5025491;28;19925;-64
2023/07/21 02:06:12;;;;;;;;;;;;;;;18.75;50.75;97497.84;5022387;28;19941;-63
2023/07/21 02:09:00;;;;;;;;;;;;;;;18.78;50.66;97500.66;5024848;28;19933;-63
2023/07/21 02:11:49;;;;;;;;;;;;;;;18.77;50.55;97490.03;5024659;28;19928;-65
2023/07/21 02:14:58;;;;;;;;;;;;;;;18.72;50.68;97482.91;5021866;28;19929;-65
2023/07/21 02:17:48;;;;;;;;;;;;;;;18.70;50.72;97482.50;5019583;28;19937;-65
2023/07/21 02:20:36;;;;;;;;;;;;;;;18.68;50.90;97479.31;5016112;28;19935;-66
2023/07/21 02:23:24;;;;;;;;;;;;;;;18.67;51.27;97472.19;5021836;28;19956;-63
2023/07/21 02:26:12;;;;;;;;;;;;;;;18.62;51.16;97480.78;5025954;28;19925;-64
2023/07/21 02:29:01;;;;;;;;;;;;;;;18.66;50.94;97476.13;5020891;28;19933;-65
2023/07/21 02:31:49;;;;;;;;;;;;;;;18.66;51.13;97475.34;5017911;28;20447;-65
2023/07/21 02:34:41;;;;;;;;;;;;;;;18.64;51.25;97477.66;5021587;28;19970;-64
2023/07/21 02:37:29;;;;;;;;;;;;;;;18.69;51.00;97469.88;5023476;28;19933;-63
2023/07/21 02:40:19;;;;;;;;;;;;;;;18.71;51.24;97464.81;5017906;28;19933;-64
2023/07/21 02:43:08;;;;;;;;;;;;;;;18.73;51.05;97465.22;5022768;28;19926;-65
2023/07/21 02:45:57;;;;;;;;;;;;;;;18.76;51.02;97471.94;5017291;28;19929;-64
2023/07/21 02:48:45;;;;;;;;;;;;;;;18.75;51.01;97468.41;5026472;28;20014;-63
2023/07/21 02:51:35;;;;;;;;;;;;;;;18.77;50.93;97466.06;5024441;28;19929;-64
2023/07/21 02:54:23;;;;;;;;;;;;;;;18.78;50.98;97473.16;5019989;28;19929;-63
2023/07/21 02:57:12;;;;;;;;;;;;;;;18.84;50.91;97468.09;5035687;28;19929;-63
2023/07/21 03:00:01;;;;;;;;;;;;;;;18.78;50.99;97466.84;5020124;28;19987;-64
2023/07/21 03:02:56;;;;;;;;;;;;;;;18.61;51.43;97470.16;5022741;28;20306;-65
2023/07/21 03:05:45;;;;;;;;;;;;;;;18.54;51.59;97460.66;5021626;28;19935;-63
2023/07/21 03:08:36;;;;;;;;;;;;;;;18.51;51.69;97455.09;5022191;28;19934;-64
2023/07/21 03:11:29;;;;;;;;;;;;;;;18.54;51.66;97457.13;5019619;28;19971;-63
2023/07/21 03:14:30;;;;;;;;;;;;;;;18.52;51.77;97454.72;5012838;28;20029;-64
2023/07/21 03:17:18;;;;;;;;;;;;;;;18.48;51.72;97459.41;5018641;28;19932;-64
2023/07/21 03:20:12;;;;;;;;;;;;;;;18.52;51.80;97453.94;5022267;28;19929;-65
2023/07/21 03:23:00;;;;;;;;;;;;;;;18.54;51.79;97457.13;5022588;28;19925;-64
2023/07/21 03:25:50;;;;;;;;;;;;;;;18.45;52.29;97460.16;5022266;28;19936;-64
2023/07/21 03:28:39;;;;;;;;;;;;;;;18.36;52.52;97461.59;5024162;28;19987;-64
2023/07/21 03:31:27;;;;;;;;;;;;;;;18.22;52.81;97463.00;5022372;28;19929;-67
2023/07/21 03:34:21;;;;;;;;;;;;;;;18.20;53.04;97475.53;5018080;28;19972;-64
2023/07/21 03:37:09;;;;;;;;;;;;;;;18.15;53.13;97468.38;5021248;28;20002;-64
2023/07/21 03:39:58;;;;;;;;;;;;;;;18.10;53.16;97465.16;5023528;28;20148;-64
2023/07/21 03:42:47;;;;;;;;;;;;;;;18.08;53.34;97467.50;5019533;28;19925;-64
2023/07/21 03:45:35;;;;;;;;;;;;;;;18.13;53.12;97456.97;5021061;28;19932;-64
2023/07/21 03:48:24;;;;;;;;;;;;;;;18.19;53.04;97458.22;5023298;28;19936;-64
2023/07/21 03:51:13;;;;;;;;;;;;;;;18.16;53.07;97458.97;5022386;28;19929;-65
2023/07/21 03:54:05;;;;;;;;;;;;;;;18.17;53.14;97470.78;5019531;28;20019;-63
2023/07/21 03:56:54;;;;;;;;;;;;;;;18.14;53.16;97466.81;5024538;28;19929;-64
2023/07/21 03:59:43;;;;;;;;;;;;;;;18.16;53.21;97460.94;5017334;28;19925;-64
2023/07/21 04:02:31;;;;;;;;;;;;;;;18.08;53.31;97456.50;5019253;28;20346;-63
2023/07/21 04:05:20;;;;;;;;;;;;;;;18.09;53.27;97452.59;5017810;28;20393;-65
2023/07/21 04:08:09;;;;;;;;;;;;;;;18.08;53.40;97454.53;5015915;28;19933;-63
2023/07/21 04:10:57;;;;;;;;;;;;;;;18.06;53.58;97456.88;5019288;28;19932;-63
2023/07/21 04:13:46;;;;;;;;;;;;;;;18.00;53.93;97461.09;5017332;28;19929;-63
2023/07/21 04:16:35;;;;;;;;;;;;;;;17.98;53.93;97453.22;5019703;28;20271;-65
2023/07/21 04:19:25;;;;;;;;;;;;;;;18.01;54.16;97448.97;5028023;28;19933;-65
2023/07/21 04:22:16;;;;;;;;;;;;;;;18.08;53.73;97451.78;5021104;28;20070;-63
2023/07/21 04:25:04;;;;;;;;;;;;;;;18.09;53.90;97452.59;5017418;28;19940;-63
2023/07/21 04:27:54;;;;;;;;;;;;;;;18.13;54.00;97445.97;5023480;28;19936;-63
2023/07/21 04:30:43;;;;;;;;;;;;;;;18.11;53.84;97451.06;5018576;28;19979;-64
2023/07/21 04:33:34;;;;;;;;;;;;;;;18.13;53.87;97447.94;5015976;28;19964;-63
2023/07/21 04:36:24;;;;;;;;;;;;;;;18.15;53.71;97451.09;5022457;28;20597;-64
2023/07/21 04:39:13;;;;;;;;;;;;;;;18.21;53.54;97449.59;5026850;28;19933;-63
2023/07/21 04:42:02;;;;;;;;;;;;;;;18.32;53.37;97454.09;5020726;28;19935;-66
2023/07/21 04:44:52;;;;;;;;;;;;;;;18.26;53.57;97443.78;5024376;28;19960;-66
2023/07/21 04:47:40;;;;;;;;;;;;;;;18.16;53.83;97445.22;5026263;28;19971;-64
2023/07/21 04:50:37;;;;;;;;;;;;;;;18.11;53.73;97434.56;5025062;28;20592;-67
2023/07/21 04:53:25;;;;;;;;;;;;;;;18.19;53.89;97443.69;5022124;28;20330;-65
2023/07/21 04:56:16;;;;;;;;;;;;;;;18.17;54.13;97444.06;5017294;28;19929;-65
2023/07/21 04:59:10;;;;;;;;;;;;;;;18.19;53.63;97440.94;5026282;28;19929;-65
2023/07/21 05:02:00;;;;;;;;;;;;;;;18.28;53.56;97444.22;5021998;28;19936;-65
2023/07/21 05:04:48;;;;;;;;;;;;;;;18.32;53.69;97440.34;5019295;28;19929;-65
2023/07/21 05:07:41;;;;;;;;;;;;;;;18.32;53.74;97436.78;5025957;28;19929;-64
2023/07/21 05:10:29;;;;;;;;;;;;;;;18.39;53.59;97444.34;5023727;28;19929;-67
2023/07/21 05:13:18;;;;;;;;;;;;;;;18.27;54.33;97446.19;5021653;28;20484;-63
2023/07/21 05:16:14;;;;;;;;;;;;;;;18.16;54.44;97442.47;5017405;28;19932;-64
2023/07/21 05:19:18;;;;;;;;;;;;;;;18.21;54.56;97441.34;5022200;28;19925;-63
2023/07/21 05:22:25;;;;;;;;;;;;;;;18.23;54.28;97452.78;5020543;28;19929;-64
2023/07/21 05:25:35;;;;;;;;;;;;;;;18.30;54.09;97448.16;5024231;28;20091;-63
2023/07/21 05:28:25;;;;;;;;;;;;;;;18.30;53.94;97442.66;5021429;28;19933;-65
2023/07/21 05:31:13;;;;;;;;;;;;;;;18.30;54.06;97434.41;5026496;28;20411;-63
2023/07/21 05:34:18;;;;;;;;;;;;;;;18.20;54.59;97437.81;5026253;28;19934;-63
2023/07/21 05:37:07;;;;;;;;;;;;;;;18.28;54.34;97439.50;5027341;28;19925;-63
2023/07/21 05:39:55;;;;;;;;;;;;;;;18.32;54.17;97428.53;5025863;28;19929;-64
2023/07/21 05:42:48;;;;;;;;;;;;;;;18.31;54.18;97432.44;5038090;28;20803;-63
2023/07/21 05:45:37;;;;;;;;;;;;;;;18.39;54.10;97422.34;5017737;28;19933;-63
2023/07/21 05:48:26;;;;;;;;;;;;;;;18.34;54.56;97426.22;5022802;28;19936;-63
2023/07/21 05:51:20;;;;;;;;;;;;;;;18.36;54.78;97426.63;5017540;28;19959;-66
2023/07/21 05:54:16;;;;;;;;;;;;;;;18.40;54.52;97432.19;5021126;28;19929;-66
2023/07/21 05:57:05;;;;;;;;;;;;;;;18.48;54.60;97422.84;5020439;28;20554;-63
2023/07/21 05:59:59;;;;;;;;;;;;;;;18.51;54.51;97420.13;5022008;28;19984;-63
2023/07/21 06:02:48;;;;;;;;;;;;;;;18.61;54.64;97426.94;5016505;28;19932;-62
2023/07/21 06:05:36;;;;;;;;;;;;;;;18.73;54.43;97423.94;5024786;28;20279;-63
2023/07/21 06:08:47;;;;;;;;;;;;;;;18.77;54.09;97426.75;5016439;28;20019;-64
2023/07/21 06:12:11;;;;;;;;;;;;;;;18.83;53.88;97422.47;4978880;28;19933;-63
2023/07/21 06:15:27;;;;;;;;;;;;;;;18.89;54.11;97426.47;5025474;28;19986;-65
2023/07/21 06:18:17;;;;;;;;;;;;;;;18.98;53.80;97423.44;5021389;28;20016;-65
2023/07/21 06:21:05;;;;;;;;;;;;;;;19.02;52.92;97424.25;5021419;28;19929;-64
2023/07/21 06:23:53;;;;;;;;;;;;;;;19.01;53.20;97417.16;5015415;28;19932;-64
2023/07/21 06:26:42;;;;;;;;;;;;;;;18.99;53.82;97422.25;5016231;28;20385;-64
2023/07/21 06:29:34;;;;;;;;;;;;;;;19.00;54.00;97419.09;5020218;28;20463;-65
2023/07/21 06:32:24;;;;;;;;;;;;;;;19.06;53.51;97416.81;5026692;28;19925;-66
2023/07/21 06:35:27;;;;;;;;;;;;;;;19.17;53.30;97422.41;5020900;28;19971;-64
2023/07/21 06:38:23;;;;;;;;;;;;;;;19.27;52.79;97428.00;5016384;28;20533;-64
2023/07/21 06:41:37;;;;;;;;;;;;;;;19.40;52.50;97422.22;5019820;28;19936;-65
2023/07/21 06:44:37;;;;;;;;;;;;;;;19.55;52.53;97412.91;5018271;28;20046;-64
2023/07/21 06:47:50;;;;;;;;;;;;;;;19.62;51.89;97412.97;5018639;28;19963;-63
2023/07/21 06:50:54;;;;;;;;;;;;;;;19.71;51.44;97407.94;5022326;28;20428;-64
2023/07/21 06:53:45;;;;;;;;;;;;;;;19.78;51.29;97402.47;5023591;28;19925;-63
2023/07/21 06:56:33;;;;;;;;;;;;;;;19.92;50.80;97409.22;5022765;28;19932;-63
2023/07/21 06:59:22;;;;;;;;;;;;;;;19.99;51.33;97412.03;5019974;28;20019;-63
2023/07/21 07:02:12;;;;;;;;;;;;;;;20.09;50.23;97405.78;5037979;28;19940;-64
2023/07/21 07:05:02;;;;;;;;;;;;;;;20.10;50.00;97404.63;5017820;28;20642;-63
2023/07/21 07:07:52;;;;;;;;;;;;;;;20.20;50.29;97389.31;5022080;28;20027;-63
2023/07/21 07:10:41;;;;;;;;;;;;;;;20.32;50.01;97386.97;5022820;28;19972;-62
2023/07/21 07:13:30;;;;;;;;;;;;;;;20.33;50.14;97387.75;5021173;28;19929;-65
2023/07/21 07:16:18;;;;;;;;;;;;;;;20.36;49.70;97387.00;5023886;28;19932;-64
2023/07/21 07:19:06;;;;;;;;;;;;;;;20.34;49.35;97389.34;5021469;28;19933;-64
2023/07/21 07:21:56;;;;;;;;;;;;;;;20.31;50.27;97384.63;5023233;28;19936;-62
2023/07/21 07:24:44;;;;;;;;;;;;;;;20.19;49.41;97388.50;5023453;28;19932;-62
2023/07/21 07:27:33;;;;;;;;;;;;;;;20.16;49.99;97389.28;5035788;28;20051;-64
2023/07/21 07:30:21;;;;;;;;;;;;;;;20.14;49.91;97392.44;5026367;28;20609;-63
2023/07/21 07:33:09;;;;;;;;;;;;;;;20.11;49.23;97393.19;5020832;28;20116;-65
2023/07/21 07:35:58;;;;;;;;;;;;;;;20.20;49.99;97384.56;5018218;28;19928;-63
2023/07/21 07:38:48;;;;;;;;;;;;;;;20.32;49.98;97386.97;5021431;28;20024;-65
2023/07/21 07:41:36;;;;;;;;;;;;;;;20.47;48.94;97378.78;5019772;28;19925;-66
2023/07/21 07:44:24;;;;;;;;;;;;;;;20.56;48.30;97381.94;5018201;28;20370;-64
2023/07/21 07:47:12;;;;;;;;;;;;;;;20.71;47.84;97385.53;5029778;28;19940;-64
2023/07/21 07:50:01;;;;;;;;;;;;;;;20.76;47.27;97383.19;5022056;28;19936;-64
2023/07/21 07:52:49;;;;;;;;;;;;;;;20.82;46.75;97381.63;5025958;28;20028;-64
2023/07/21 07:55:39;;;;;;;;;;;;;;;20.88;46.29;97379.28;5019527;28;19925;-65
2023/07/21 07:58:27;;;;;;;;;;;;;;;20.90;46.43;97386.00;5021405;28;19932;-64
2023/07/21 08:01:15;;;;;;;;;;;;;;;21.05;45.37;97389.56;5019511;28;19925;-64
2023/07/21 08:04:04;;;;;;;;;;;;;;;21.10;44.87;97380.91;5018675;28;20019;-63
2023/07/21 08:06:52;;;;;;;;;;;;;;;21.15;45.16;97393.53;5032135;28;19929;-63
2023/07/21 08:09:40;;;;;;;;;;;;;;;21.11;44.99;97388.00;5020936;28;19929;-64
2023/07/21 08:12:30;;;;;;;;;;;;;;;21.22;45.35;97399.03;5023447;28;20370;-63
2023/07/21 08:15:18;;;;;;;;;;;;;;;21.25;44.16;97394.69;5024968;28;19925;-64
2023/07/21 08:18:07;;;;;;;;;;;;;;;21.29;44.35;97398.25;5020905;28;19937;-63
2023/07/21 08:20:55;;;;;;;;;;;;;;;21.35;43.77;97397.47;5026477;28;20378;-64
2023/07/21 08:23:43;;;;;;;;;;;;;;;21.39;43.42;97398.28;5019125;28;19933;-64
2023/07/21 08:26:31;;;;;;;;;;;;;;;21.32;42.72;97386.44;5020941;28;19936;-63
2023/07/21 08:29:24;;;;;;;;;;;;;;;21.34;43.30;97384.84;5022109;28;19932;-64
2023/07/21 08:32:12;;;;;;;;;;;;;;;21.41;43.52;97382.13;5020289;28;19937;-64
2023/07/21 08:35:03;;;;;;;;;;;;;;;21.43;43.75;97384.47;5024861;28;20409;-64
2023/07/21 08:37:52;;;;;;;;;;;;;;;21.46;43.47;97386.44;5023601;28;19937;-64
2023/07/21 08:40:40;;;;;;;;;;;;;;;21.48;43.37;97395.13;5027704;28;20039;-64
2023/07/21 08:43:31;;;;;;;;;;;;;;;21.60;42.72;97388.41;5022228;28;20469;-64
2023/07/21 08:46:20;;;;;;;;;;;;;;;21.64;43.17;97391.97;5025758;28;19925;-65
2023/07/21 08:49:09;;;;;;;;;;;;;;;21.65;42.74;97394.31;5022663;28;20038;-64
2023/07/21 08:51:57;;;;;;;;;;;;;;;21.71;43.14;97392.72;5020555;28;19936;-63
2023/07/21 08:54:45;;;;;;;;;;;;;;;21.82;42.64;97389.94;5024167;28;19932;-64
2023/07/21 08:57:34;;;;;;;;;;;;;;;21.83;42.60;97393.50;5026022;28;19933;-64
2023/07/21 09:00:22;;;;;;;;;;;;;;;22.06;42.21;97391.09;5029444;28;19925;-63
2023/07/21 09:03:12;;;;;;;;;;;;;;;21.99;42.83;97393.84;5023754;28;19936;-64
2023/07/21 09:06:01;;;;;;;;;;;;;;;22.01;42.43;97396.25;5024840;28;19929;-64
2023/07/21 09:08:49;;;;;;;;;;;;;;;22.01;42.16;97397.03;5023790;28;20559;-64
2023/07/21 09:11:37;;;;;;;;;;;;;;;22.00;41.94;97397.41;5021627;28;19947;-65
2023/07/21 09:14:30;;;;;;;;;;;;;;;21.98;39.45;97411.63;5041200;28;19925;-65
2023/07/21 09:17:18;;;;;;;;;;;;;;;22.00;38.53;97408.47;5029130;28;20374;-65
2023/07/21 09:20:09;;;;;;;;;;;;;;;22.06;38.89;97407.69;5022510;28;19925;-65
2023/07/21 09:22:58;;;;;;;;;;;;;;;22.03;38.84;97402.94;5022350;28;19929;-65
2023/07/21 09:25:50;;;;;;;;;;;;;;;22.06;37.79;97406.91;5032314;28;19925;-64
2023/07/21 09:28:38;;;;;;;;;;;;;;;22.07;38.16;97409.25;5024088;28;19956;-64
2023/07/21 09:31:28;;;;;;;;;;;;;;;22.09;38.81;97397.78;5024325;28;19972;-69
2023/07/21 09:34:16;;;;;;;;;;;;;;;22.18;39.25;97407.28;5010372;28;19926;-64
2023/07/21 09:37:07;;;;;;;;;;;;;;;22.24;38.95;97402.13;5028731;28;19925;-66
2023/07/21 09:40:00;;;;;;;;;;;;;;;22.30;38.29;97410.78;5019398;28;20542;-63
2023/07/21 09:42:48;;;;;;;;;;;;;;;22.31;38.81;97407.63;5024216;28;19932;-64
2023/07/21 09:45:39;;;;;;;;;;;;;;;22.35;37.11;97411.16;5022550;28;19956;-64
2023/07/21 09:48:27;;;;;;;;;;;;;;;22.39;36.86;97402.84;5026266;28;19925;-66
2023/07/21 09:51:15;;;;;;;;;;;;;;;22.37;36.45;97403.25;5019983;28;20598;-64
2023/07/21 09:54:05;;;;;;;;;;;;;;;22.37;35.44;97408.81;5023906;28;19925;-64
2023/07/21 09:56:53;;;;;;;;;;;;;;;22.38;37.32;97415.91;5020674;28;19934;-65
2023/07/21 09:59:41;;;;;;;;;;;;;;;22.34;39.07;97415.13;5017945;28;20485;-66
2023/07/21 10:02:29;;;;;;;;;;;;;;;22.28;39.66;97408.44;5018280;28;20593;-64
2023/07/21 10:05:18;;;;;;;;;;;;;;;22.25;39.86;97406.44;5014147;28;19925;-64
2023/07/21 10:08:09;;;;;;;;;;;;;;;22.22;39.92;97396.19;5022012;28;19965;-64
2023/07/21 10:10:59;;;;;;;;;;;;;;;22.28;40.12;97410.41;5023637;28;20012;-64
2023/07/21 10:13:47;;;;;;;;;;;;;;;22.34;40.15;97406.81;5016965;28;19925;-63
2023/07/21 10:16:36;;;;;;;;;;;;;;;22.43;40.41;97409.97;5022535;28;19925;-63
2023/07/21 10:19:24;;;;;;;;;;;;;;;22.41;40.21;97392.94;5022120;28;19955;-63
2023/07/21 10:22:23;;;;;;;;;;;;;;;22.55;39.50;97397.63;5016500;28;20276;-63
2023/07/21 10:25:11;;;;;;;;;;;;;;;22.66;38.67;97394.81;5022865;28;20008;-63
2023/07/21 10:28:06;;;;;;;;;;;;;;;22.67;38.46;97386.09;5029519;28;20456;-65
2023/07/21 10:30:54;;;;;;;;;;;;;;;22.72;38.70;97393.19;5017864;28;20394;-64
2023/07/21 10:33:43;;;;;;;;;;;;;;;22.73;38.81;97387.25;5042561;28;19967;-63
2023/07/21 10:36:45;;;;;;;;;;;;;;;22.73;38.95;97394.78;5026788;28;19951;-63
2023/07/21 10:39:34;;;;;;;;;;;;;;;22.78;38.51;97390.78;5015135;28;19925;-63
2023/07/21 10:42:22;;;;;;;;;;;;;;;22.84;38.68;97400.25;5023294;28;20303;-66
2023/07/21 10:45:12;;;;;;;;;;;;;;;22.82;37.88;97400.66;5020530;28;19929;-64
2023/07/21 10:48:10;;;;;;;;;;;;;;;22.84;37.41;97389.94;5022183;28;19925;-65
2023/07/21 10:50:59;;;;;;;;;;;;;;;22.89;37.17;97391.53;5024771;28;19991;-65
2023/07/21 10:53:47;;;;;;;;;;;;;;;22.84;36.50;97394.72;5021477;28;19933;-64
2023/07/21 10:56:36;;;;;;;;;;;;;;;22.81;36.50;97390.78;5023207;28;19929;-66
2023/07/21 10:59:24;;;;;;;;;;;;;;;22.85;37.09;97396.28;5022830;28;19936;-64
2023/07/21 11:02:14;;;;;;;;;;;;;;;22.83;36.36;97404.22;5023202;28;20775;-64
2023/07/21 11:05:02;;;;;;;;;;;;;;;22.92;36.26;97401.81;5021296;28;19933;-66
2023/07/21 11:07:53;;;;;;;;;;;;;;;22.82;36.10;97403.44;5021771;28;20067;-64
2023/07/21 11:10:41;;;;;;;;;;;;;;;22.85;35.95;97394.31;5011757;28;19926;-64
2023/07/21 11:13:30;;;;;;;;;;;;;;;22.83;35.77;97399.47;5044395;28;19968;-64
2023/07/21 11:16:18;;;;;;;;;;;;;;;22.83;35.60;97395.91;5026315;28;20034;-65
2023/07/21 11:19:08;;;;;;;;;;;;;;;22.83;35.90;97398.69;5014320;28;20429;-63
2023/07/21 11:21:56;;;;;;;;;;;;;;;22.84;35.90;97395.50;5029632;28;19937;-64
2023/07/21 11:24:54;;;;;;;;;;;;;;;22.85;36.02;97393.50;5023996;28;20413;-64
2023/07/21 11:27:43;;;;;;;;;;;;;;;22.82;35.42;97397.88;5025709;28;19968;-64
2023/07/21 11:30:31;;;;;;;;;;;;;;;22.83;35.57;97388.38;5014551;28;20317;-63
2023/07/21 11:33:19;;;;;;;;;;;;;;;22.84;34.49;97389.94;5024839;28;19929;-63
2023/07/21 11:36:15;;;;;;;;;;;;;;;22.82;34.17;97402.66;5022629;28;19926;-62
2023/07/21 11:39:07;;;;;;;;;;;;;;;22.85;34.13;97404.59;5032759;28;19929;-62
2023/07/21 11:41:55;;;;;;;;;;;;;;;22.82;34.12;97399.88;5026664;28;19936;-64
2023/07/21 11:44:43;;;;;;;;;;;;;;;22.84;33.32;97409.34;5022876;28;19929;-65
2023/07/21 11:47:32;;;;;;;;;;;;;;;22.93;33.86;97408.94;5023731;28;19936;-65
2023/07/21 11:50:20;;;;;;;;;;;;;;;22.93;33.41;97415.25;5020626;28;19932;-65
2023/07/21 11:53:10;;;;;;;;;;;;;;;22.99;33.40;97405.31;5026873;28;19924;-65
2023/07/21 11:55:59;;;;;;;;;;;;;;;22.98;33.29;97400.97;5018766;28;19925;-66
2023/07/21 11:58:47;;;;;;;;;;;;;;;23.06;33.44;97395.38;5019554;28;19929;-63
2023/07/21 12:01:36;;;;;;;;;;;;;;;23.08;33.13;97398.56;5020870;28;20052;-63
2023/07/21 12:04:24;;;;;;;;;;;;;;;23.21;32.90;97394.09;5020293;28;19925;-62
2023/07/21 12:07:15;;;;;;;;;;;;;;;23.17;32.91;97396.09;5023071;28;19932;-62
2023/07/21 12:10:06;;;;;;;;;;;;;;;23.13;32.62;97398.13;5018522;28;19928;-61
2023/07/21 12:12:55;;;;;;;;;;;;;;;23.15;33.07;97387.41;5021238;28;19944;-62
2023/07/21 12:15:43;;;;;;;;;;;;;;;23.16;33.63;97387.00;5017917;28;19929;-63
2023/07/21 12:18:33;;;;;;;;;;;;;;;23.26;33.60;97393.66;5020587;28;20379;-64
2023/07/21 12:21:21;;;;;;;;;;;;;;;23.31;33.97;97396.00;5021963;28;20520;-62
2023/07/21 12:24:09;;;;;;;;;;;;;;;23.30;33.53;97394.44;5039013;28;19929;-62
2023/07/21 12:27:02;;;;;;;;;;;;;;;23.28;33.65;97405.16;5025101;28;19925;-62
2023/07/21 12:29:50;;;;;;;;;;;;;;;23.33;33.91;97396.41;5021904;28;19925;-62
2023/07/21 12:32:39;;;;;;;;;;;;;;;23.43;33.92;97380.84;5019190;28;19925;-62
2023/07/21 12:35:27;;;;;;;;;;;;;;;23.43;34.14;97389.16;5023064;28;19935;-61
2023/07/21 12:38:15;;;;;;;;;;;;;;;23.51;34.05;97385.94;5018700;28;19932;-67
2023/07/21 12:41:03;;;;;;;;;;;;;;;23.44;33.94;97376.91;5017052;28;19929;-66
2023/07/21 12:43:53;;;;;;;;;;;;;;;23.38;33.93;97384.06;5025938;28;19931;-64
2023/07/21 12:46:41;;;;;;;;;;;;;;;23.42;34.27;97374.50;5018750;28;19933;-65
2023/07/21 12:49:29;;;;;;;;;;;;;;;23.45;34.26;97372.94;5018068;28;19929;-65
2023/07/21 12:52:18;;;;;;;;;;;;;;;23.46;34.66;97368.94;5020792;28;19933;-61
2023/07/21 12:55:06;;;;;;;;;;;;;;;23.40;34.45;97365.06;5015787;28;20696;-61
2023/07/21 12:57:55;;;;;;;;;;;;;;;23.41;34.68;97361.84;5011967;28;20295;-61
2023/07/21 13:00:44;;;;;;;;;;;;;;;23.38;34.58;97357.13;5019853;28;19936;-64
2023/07/21 13:03:34;;;;;;;;;;;;;;;23.33;34.50;97365.91;5027162;28;19936;-64
2023/07/21 13:06:23;;;;;;;;;;;;;;;23.32;35.27;97353.22;5023106;28;20303;-62
2023/07/21 13:09:12;;;;;;;;;;;;;;;23.28;34.60;97346.94;5025630;28;19925;-62
2023/07/21 13:12:02;;;;;;;;;;;;;;;23.31;34.69;97340.56;5015568;28;19968;-62
2023/07/21 13:14:50;;;;;;;;;;;;;;;23.35;34.90;97346.09;5027574;28;19929;-62
2023/07/21 13:17:40;;;;;;;;;;;;;;;23.41;35.39;97339.69;5023233;28;19936;-62
2023/07/21 13:20:28;;;;;;;;;;;;;;;23.42;34.68;97341.25;5012690;28;20016;-63
2023/07/21 13:23:16;;;;;;;;;;;;;;;23.40;34.71;97340.09;5031460;28;19940;-62
2023/07/21 13:26:09;;;;;;;;;;;;;;;23.53;35.24;97330.84;5024529;28;20015;-61
2023/07/21 13:28:58;;;;;;;;;;;;;;;23.49;34.84;97340.41;5023878;28;19967;-62
2023/07/21 13:31:46;;;;;;;;;;;;;;;23.47;35.34;97331.72;5020833;28;19929;-62
2023/07/21 13:34:36;;;;;;;;;;;;;;;23.48;35.13;97336.84;5018778;28;20366;-63
2023/07/21 13:37:25;;;;;;;;;;;;;;;23.51;34.82;97343.56;5025403;28;20319;-62
2023/07/21 13:40:13;;;;;;;;;;;;;;;23.57;34.59;97336.38;5021165;28;19937;-62
2023/07/21 13:43:01;;;;;;;;;;;;;;;23.61;34.69;97331.56;5019583;28;19925;-63
2023/07/21 13:45:50;;;;;;;;;;;;;;;23.60;34.82;97329.22;5024926;28;19929;-63
2023/07/21 13:48:38;;;;;;;;;;;;;;;23.62;34.76;97335.91;5022782;28;19981;-63
2023/07/21 13:51:28;;;;;;;;;;;;;;;23.59;35.28;97324.84;5030419;28;19925;-63
2023/07/21 13:54:16;;;;;;;;;;;;;;;23.56;33.54;97328.47;5017474;28;19925;-62
2023/07/21 13:57:04;;;;;;;;;;;;;;;23.50;33.94;97325.34;5019388;28;19929;-64
2023/07/21 13:59:53;;;;;;;;;;;;;;;23.55;33.14;97326.91;5021248;28;19929;-63
2023/07/21 14:02:42;;;;;;;;;;;;;;;23.45;33.51;97321.03;5028483;28;19929;-63
2023/07/21 14:05:30;;;;;;;;;;;;;;;23.50;34.27;97326.13;5022431;28;19929;-65
2023/07/21 14:08:19;;;;;;;;;;;;;;;23.50;33.59;97326.13;5018657;28;19976;-62
2023/07/21 14:11:08;;;;;;;;;;;;;;;23.49;34.18;97327.34;5024563;28;19941;-64
2023/07/21 14:13:56;;;;;;;;;;;;;;;23.49;34.09;97323.78;5027894;28;19925;-63
2023/07/21 14:16:44;;;;;;;;;;;;;;;23.56;33.60;97328.47;5031817;28;19929;-65
2023/07/21 14:19:32;;;;;;;;;;;;;;;23.55;33.20;97329.66;5026332;28;20434;-63
2023/07/21 14:22:20;;;;;;;;;;;;;;;23.52;34.15;97328.50;5019906;28;20048;-63
2023/07/21 14:25:10;;;;;;;;;;;;;;;23.45;32.78;97340.44;5017068;28;20286;-64
2023/07/21 14:28:01;;;;;;;;;;;;;;;23.41;33.47;97328.59;5025778;28;19932;-65
2023/07/21 14:30:50;;;;;;;;;;;;;;;23.43;33.03;97333.72;5018827;28;19936;-62
2023/07/21 14:33:38;;;;;;;;;;;;;;;23.40;33.68;97331.78;5024960;28;20044;-63
2023/07/21 14:36:26;;;;;;;;;;;;;;;23.42;33.58;97332.94;5017519;28;19940;-63
2023/07/21 14:39:14;;;;;;;;;;;;;;;23.43;33.91;97328.97;5015461;28;19929;-62
2023/07/21 14:42:04;;;;;;;;;;;;;;;23.44;33.84;97325.00;5013873;28;19934;-65
2023/07/21 14:44:52;;;;;;;;;;;;;;;23.48;34.45;97327.72;5034693;28;19932;-64
2023/07/21 14:47:43;;;;;;;;;;;;;;;23.52;34.05;97334.03;5011846;28;20030;-63